sensor_id;sensor_type;location;lat;lon;timestamp;temperature;humidity
77582;DHT22;66726;52.388;9.986;2023-06-26T00:00:10;22.40;94.60
77582;DHT22;66726;52.388;9.986;2023-06-26T00:02:43;22.40;94.80
77582;DHT22;66726;52.388;9.986;2023-06-26T00:05:17;22.50;94.80
77582;DHT22;66726;52.388;9.986;2023-06-26T00:07:49;22.40;94.80
77582;DHT22;66726;52.388;9.986;2023-06-26T00:10:21;22.50;94.90
77582;DHT22;66726;52.388;9.986;2023-06-26T00:12:53;22.40;94.90
77582;DHT22;66726;52.388;9.986;2023-06-26T00:15:25;22.40;95.00
77582;DHT22;66726;52.388;9.986;2023-06-26T00:17:59;22.30;95.10
77582;DHT22;66726;52.388;9.986;2023-06-26T00:20:33;22.30;95.10
77582;DHT22;66726;52.388;9.986;2023-06-26T00:23:06;22.30;95.30
77582;DHT22;66726;52.388;9.986;2023-06-26T00:25:38;22.20;95.70
77582;DHT22;66726;52.388;9.986;2023-06-26T00:28:11;22.10;95.90
77582;DHT22;66726;52.388;9.986;2023-06-26T00:30:43;22.10;95.60
77582;DHT22;66726;52.388;9.986;2023-06-26T00:33:15;22.00;95.80
77582;DHT22;66726;52.388;9.986;2023-06-26T00:35:50;21.90;95.90
77582;DHT22;66726;52.388;9.986;2023-06-26T00:38:21;21.90;96.20
77582;DHT22;66726;52.388;9.986;2023-06-26T00:40:53;21.90;96.00
77582;DHT22;66726;52.388;9.986;2023-06-26T00:43:25;21.90;95.90
77582;DHT22;66726;52.388;9.986;2023-06-26T00:45:59;21.90;96.10
77582;DHT22;66726;52.388;9.986;2023-06-26T00:48:31;21.90;96.10
77582;DHT22;66726;52.388;9.986;2023-06-26T00:51:04;21.80;96.20
77582;DHT22;66726;52.388;9.986;2023-06-26T00:53:36;21.80;96.40
77582;DHT22;66726;52.388;9.986;2023-06-26T00:56:09;21.70;96.40
77582;DHT22;66726;52.388;9.986;2023-06-26T00:58:43;21.60;96.50
77582;DHT22;66726;52.388;9.986;2023-06-26T01:01:15;21.60;96.60
77582;DHT22;66726;52.388;9.986;2023-06-26T01:03:55;21.70;96.40
77582;DHT22;66726;52.388;9.986;2023-06-26T01:06:29;21.70;96.70
77582;DHT22;66726;52.388;9.986;2023-06-26T01:09:04;21.60;96.70
77582;DHT22;66726;52.388;9.986;2023-06-26T01:11:36;21.70;96.60
77582;DHT22;66726;52.388;9.986;2023-06-26T01:14:08;21.60;96.50
77582;DHT22;66726;52.388;9.986;2023-06-26T01:16:40;21.50;96.70
77582;DHT22;66726;52.388;9.986;2023-06-26T01:19:23;21.50;96.70
77582;DHT22;66726;52.388;9.986;2023-06-26T01:22:02;21.50;96.60
77582;DHT22;66726;52.388;9.986;2023-06-26T01:24:48;21.40;96.70
77582;DHT22;66726;52.388;9.986;2023-06-26T01:27:34;21.40;97.10
77582;DHT22;66726;52.388;9.986;2023-06-26T01:30:09;21.30;97.10
77582;DHT22;66726;52.388;9.986;2023-06-26T01:32:42;21.40;97.20
77582;DHT22;66726;52.388;9.986;2023-06-26T01:35:17;21.30;97.10
77582;DHT22;66726;52.388;9.986;2023-06-26T01:37:49;21.30;97.10
77582;DHT22;66726;52.388;9.986;2023-06-26T01:40:21;21.20;97.30
77582;DHT22;66726;52.388;9.986;2023-06-26T01:42:54;21.20;97.20
77582;DHT22;66726;52.388;9.986;2023-06-26T01:45:29;21.20;97.30
77582;DHT22;66726;52.388;9.986;2023-06-26T01:48:06;21.20;97.10
77582;DHT22;66726;52.388;9.986;2023-06-26T01:50:42;21.20;97.20
77582;DHT22;66726;52.388;9.986;2023-06-26T01:53:20;21.10;97.60
77582;DHT22;66726;52.388;9.986;2023-06-26T01:55:59;21.20;97.50
77582;DHT22;66726;52.388;9.986;2023-06-26T01:58:37;21.00;97.50
77582;DHT22;66726;52.388;9.986;2023-06-26T02:01:13;21.00;97.60
77582;DHT22;66726;52.388;9.986;2023-06-26T02:03:45;21.00;98.10
77582;DHT22;66726;52.388;9.986;2023-06-26T02:06:17;21.10;97.60
77582;DHT22;66726;52.388;9.986;2023-06-26T02:08:49;21.00;97.60
77582;DHT22;66726;52.388;9.986;2023-06-26T02:11:19;21.00;97.70
77582;DHT22;66726;52.388;9.986;2023-06-26T02:13:52;20.90;97.80
77582;DHT22;66726;52.388;9.986;2023-06-26T02:16:24;20.90;98.00
77582;DHT22;66726;52.388;9.986;2023-06-26T02:18:56;20.80;98.30
77582;DHT22;66726;52.388;9.986;2023-06-26T02:21:28;20.70;98.10
77582;DHT22;66726;52.388;9.986;2023-06-26T02:24:00;20.70;98.30
77582;DHT22;66726;52.388;9.986;2023-06-26T02:26:32;20.70;98.20
77582;DHT22;66726;52.388;9.986;2023-06-26T02:29:05;20.70;98.00
77582;DHT22;66726;52.388;9.986;2023-06-26T02:31:37;20.60;98.40
77582;DHT22;66726;52.388;9.986;2023-06-26T02:34:09;20.60;98.10
77582;DHT22;66726;52.388;9.986;2023-06-26T02:36:41;20.60;98.30
77582;DHT22;66726;52.388;9.986;2023-06-26T02:39:13;20.60;98.20
77582;DHT22;66726;52.388;9.986;2023-06-26T02:41:44;20.60;98.20
77582;DHT22;66726;52.388;9.986;2023-06-26T02:44:18;20.50;98.50
77582;DHT22;66726;52.388;9.986;2023-06-26T02:46:50;20.50;98.50
77582;DHT22;66726;52.388;9.986;2023-06-26T02:49:22;20.40;98.80
77582;DHT22;66726;52.388;9.986;2023-06-26T02:51:53;20.40;98.70
77582;DHT22;66726;52.388;9.986;2023-06-26T02:54:25;20.40;98.60
77582;DHT22;66726;52.388;9.986;2023-06-26T02:56:57;20.40;98.80
77582;DHT22;66726;52.388;9.986;2023-06-26T02:59:30;20.30;98.80
77582;DHT22;66726;52.388;9.986;2023-06-26T03:02:02;20.30;99.00
77582;DHT22;66726;52.388;9.986;2023-06-26T03:04:35;20.30;98.80
77582;DHT22;66726;52.388;9.986;2023-06-26T03:07:07;20.30;98.80
77582;DHT22;66726;52.388;9.986;2023-06-26T03:09:39;20.30;98.70
77582;DHT22;66726;52.388;9.986;2023-06-26T03:12:10;20.30;98.60
77582;DHT22;66726;52.388;9.986;2023-06-26T03:14:44;20.30;98.60
77582;DHT22;66726;52.388;9.986;2023-06-26T03:17:16;20.40;98.40
77582;DHT22;66726;52.388;9.986;2023-06-26T03:19:48;21.30;98.60
77582;DHT22;66726;52.388;9.986;2023-06-26T03:22:20;20.30;98.60
77582;DHT22;66726;52.388;9.986;2023-06-26T03:24:51;20.30;98.60
77582;DHT22;66726;52.388;9.986;2023-06-26T03:27:24;20.30;98.40
77582;DHT22;66726;52.388;9.986;2023-06-26T03:29:57;20.30;98.50
77582;DHT22;66726;52.388;9.986;2023-06-26T03:32:30;20.20;98.50
77582;DHT22;66726;52.388;9.986;2023-06-26T03:35:02;20.20;98.50
77582;DHT22;66726;52.388;9.986;2023-06-26T03:37:34;20.20;98.80
77582;DHT22;66726;52.388;9.986;2023-06-26T03:40:08;20.20;98.90
77582;DHT22;66726;52.388;9.986;2023-06-26T03:42:42;20.20;98.80
77582;DHT22;66726;52.388;9.986;2023-06-26T03:45:15;20.20;99.00
77582;DHT22;66726;52.388;9.986;2023-06-26T03:47:47;20.20;98.90
77582;DHT22;66726;52.388;9.986;2023-06-26T03:50:20;20.20;98.60
77582;DHT22;66726;52.388;9.986;2023-06-26T03:52:51;20.20;98.60
77582;DHT22;66726;52.388;9.986;2023-06-26T03:55:23;20.10;98.70
77582;DHT22;66726;52.388;9.986;2023-06-26T03:57:55;20.40;98.90
77582;DHT22;66726;52.388;9.986;2023-06-26T04:00:28;20.10;98.80
77582;DHT22;66726;52.388;9.986;2023-06-26T04:03:00;20.10;99.10
77582;DHT22;66726;52.388;9.986;2023-06-26T04:05:32;20.10;98.60
77582;DHT22;66726;52.388;9.986;2023-06-26T04:08:05;20.10;98.50
77582;DHT22;66726;52.388;9.986;2023-06-26T04:10:37;20.20;98.40
77582;DHT22;66726;52.388;9.986;2023-06-26T04:13:09;20.10;98.40
77582;DHT22;66726;52.388;9.986;2023-06-26T04:15:43;20.20;98.30
77582;DHT22;66726;52.388;9.986;2023-06-26T04:18:15;20.20;99.10
77582;DHT22;66726;52.388;9.986;2023-06-26T04:21:05;20.20;98.70
77582;DHT22;66726;52.388;9.986;2023-06-26T04:23:40;20.20;98.80
77582;DHT22;66726;52.388;9.986;2023-06-26T04:26:12;20.20;98.50
77582;DHT22;66726;52.388;9.986;2023-06-26T04:28:44;20.20;98.60
77582;DHT22;66726;52.388;9.986;2023-06-26T04:31:17;20.20;98.50
77582;DHT22;66726;52.388;9.986;2023-06-26T04:33:50;20.30;98.20
77582;DHT22;66726;52.388;9.986;2023-06-26T04:36:23;20.30;98.20
77582;DHT22;66726;52.388;9.986;2023-06-26T04:38:57;20.30;98.20
77582;DHT22;66726;52.388;9.986;2023-06-26T04:41:28;20.30;98.20
77582;DHT22;66726;52.388;9.986;2023-06-26T04:44:01;20.30;98.30
77582;DHT22;66726;52.388;9.986;2023-06-26T04:46:34;20.30;98.20
77582;DHT22;66726;52.388;9.986;2023-06-26T04:49:09;20.40;98.30
77582;DHT22;66726;52.388;9.986;2023-06-26T04:51:41;20.40;98.20
77582;DHT22;66726;52.388;9.986;2023-06-26T04:54:14;20.40;98.20
77582;DHT22;66726;52.388;9.986;2023-06-26T04:56:46;20.40;98.30
77582;DHT22;66726;52.388;9.986;2023-06-26T04:59:18;20.40;98.20
77582;DHT22;66726;52.388;9.986;2023-06-26T05:01:51;20.40;98.30
77582;DHT22;66726;52.388;9.986;2023-06-26T05:04:23;20.50;98.20
77582;DHT22;66726;52.388;9.986;2023-06-26T05:06:55;20.50;98.10
77582;DHT22;66726;52.388;9.986;2023-06-26T05:09:27;20.60;98.30
77582;DHT22;66726;52.388;9.986;2023-06-26T05:11:59;20.60;98.30
77582;DHT22;66726;52.388;9.986;2023-06-26T05:14:31;20.60;98.30
77582;DHT22;66726;52.388;9.986;2023-06-26T05:17:05;20.60;98.30
77582;DHT22;66726;52.388;9.986;2023-06-26T05:19:37;20.60;98.30
77582;DHT22;66726;52.388;9.986;2023-06-26T05:22:08;20.70;98.10
77582;DHT22;66726;52.388;9.986;2023-06-26T05:24:42;20.70;98.20
77582;DHT22;66726;52.388;9.986;2023-06-26T05:27:18;20.70;98.20
77582;DHT22;66726;52.388;9.986;2023-06-26T05:29:51;20.60;98.70
77582;DHT22;66726;52.388;9.986;2023-06-26T05:32:26;20.80;98.40
77582;DHT22;66726;52.388;9.986;2023-06-26T05:35:01;20.80;98.40
77582;DHT22;66726;52.388;9.986;2023-06-26T05:37:36;20.90;98.70
77582;DHT22;66726;52.388;9.986;2023-06-26T05:40:07;20.90;98.90
77582;DHT22;66726;52.388;9.986;2023-06-26T05:42:41;20.90;98.80
77582;DHT22;66726;52.388;9.986;2023-06-26T05:45:13;21.00;98.80
77582;DHT22;66726;52.388;9.986;2023-06-26T05:47:46;21.00;99.10
77582;DHT22;66726;52.388;9.986;2023-06-26T05:50:18;21.10;99.00
77582;DHT22;66726;52.388;9.986;2023-06-26T05:52:51;21.10;99.00
77582;DHT22;66726;52.388;9.986;2023-06-26T05:55:26;21.20;98.90
77582;DHT22;66726;52.388;9.986;2023-06-26T05:58:00;21.20;98.80
77582;DHT22;66726;52.388;9.986;2023-06-26T06:00:34;21.30;98.80
77582;DHT22;66726;52.388;9.986;2023-06-26T06:03:09;21.30;99.20
77582;DHT22;66726;52.388;9.986;2023-06-26T06:05:41;21.40;99.90
77582;DHT22;66726;52.388;9.986;2023-06-26T06:08:13;21.40;99.30
77582;DHT22;66726;52.388;9.986;2023-06-26T06:10:44;21.50;99.00
77582;DHT22;66726;52.388;9.986;2023-06-26T06:13:16;21.60;98.20
77582;DHT22;66726;52.388;9.986;2023-06-26T06:15:49;21.70;98.30
77582;DHT22;66726;52.388;9.986;2023-06-26T06:18:23;21.70;98.50
77582;DHT22;66726;52.388;9.986;2023-06-26T06:20:55;21.80;98.90
77582;DHT22;66726;52.388;9.986;2023-06-26T06:23:26;21.80;98.30
77582;DHT22;66726;52.388;9.986;2023-06-26T06:25:58;22.00;98.60
77582;DHT22;66726;52.388;9.986;2023-06-26T06:28:30;22.00;98.70
77582;DHT22;66726;52.388;9.986;2023-06-26T06:31:02;22.10;97.50
77582;DHT22;66726;52.388;9.986;2023-06-26T06:33:36;22.10;98.10
77582;DHT22;66726;52.388;9.986;2023-06-26T06:36:07;22.20;98.10
77582;DHT22;66726;52.388;9.986;2023-06-26T06:38:39;21.60;98.30
77582;DHT22;66726;52.388;9.986;2023-06-26T06:41:14;22.40;97.80
77582;DHT22;66726;52.388;9.986;2023-06-26T06:43:46;22.40;98.10
77582;DHT22;66726;52.388;9.986;2023-06-26T06:46:18;22.60;96.60
77582;DHT22;66726;52.388;9.986;2023-06-26T06:48:51;22.70;96.80
77582;DHT22;66726;52.388;9.986;2023-06-26T06:51:24;22.80;95.60
77582;DHT22;66726;52.388;9.986;2023-06-26T06:53:56;22.80;96.00
77582;DHT22;66726;52.388;9.986;2023-06-26T06:56:28;23.10;94.50
77582;DHT22;66726;52.388;9.986;2023-06-26T06:59:00;23.20;93.60
77582;DHT22;66726;52.388;9.986;2023-06-26T07:01:32;23.60;92.10
77582;DHT22;66726;52.388;9.986;2023-06-26T07:04:06;23.60;91.40
77582;DHT22;66726;52.388;9.986;2023-06-26T07:06:38;23.60;91.10
77582;DHT22;66726;52.388;9.986;2023-06-26T07:09:10;23.80;91.00
77582;DHT22;66726;52.388;9.986;2023-06-26T07:11:43;23.90;91.30
77582;DHT22;66726;52.388;9.986;2023-06-26T07:14:15;24.10;90.30
77582;DHT22;66726;52.388;9.986;2023-06-26T07:16:47;24.10;90.50
77582;DHT22;66726;52.388;9.986;2023-06-26T07:19:20;24.30;90.40
77582;DHT22;66726;52.388;9.986;2023-06-26T07:21:52;24.20;90.10
77582;DHT22;66726;52.388;9.986;2023-06-26T07:24:24;24.40;89.10
77582;DHT22;66726;52.388;9.986;2023-06-26T07:26:56;24.30;89.40
77582;DHT22;66726;52.388;9.986;2023-06-26T07:29:29;24.40;90.20
77582;DHT22;66726;52.388;9.986;2023-06-26T07:32:01;24.40;89.30
77582;DHT22;66726;52.388;9.986;2023-06-26T07:34:34;24.40;90.10
77582;DHT22;66726;52.388;9.986;2023-06-26T07:37:06;24.50;87.50
77582;DHT22;66726;52.388;9.986;2023-06-26T07:39:39;24.60;87.80
77582;DHT22;66726;52.388;9.986;2023-06-26T07:42:12;24.70;87.80
77582;DHT22;66726;52.388;9.986;2023-06-26T07:44:44;24.80;88.10
77582;DHT22;66726;52.388;9.986;2023-06-26T07:47:15;24.80;86.80
77582;DHT22;66726;52.388;9.986;2023-06-26T07:49:48;24.90;85.70
77582;DHT22;66726;52.388;9.986;2023-06-26T07:52:20;25.00;86.00
77582;DHT22;66726;52.388;9.986;2023-06-26T07:54:52;25.00;84.80
77582;DHT22;66726;52.388;9.986;2023-06-26T07:57:24;25.10;84.80
77582;DHT22;66726;52.388;9.986;2023-06-26T07:59:56;25.10;84.40
77582;DHT22;66726;52.388;9.986;2023-06-26T08:02:28;25.20;84.50
77582;DHT22;66726;52.388;9.986;2023-06-26T08:05:02;25.40;85.30
77582;DHT22;66726;52.388;9.986;2023-06-26T08:07:34;25.30;84.90
77582;DHT22;66726;52.388;9.986;2023-06-26T08:10:07;25.30;85.60
77582;DHT22;66726;52.388;9.986;2023-06-26T08:12:39;25.30;85.80
77582;DHT22;66726;52.388;9.986;2023-06-26T08:15:13;25.40;87.70
77582;DHT22;66726;52.388;9.986;2023-06-26T08:17:46;25.60;85.20
77582;DHT22;66726;52.388;9.986;2023-06-26T08:20:20;25.60;85.00
77582;DHT22;66726;52.388;9.986;2023-06-26T08:22:53;25.60;83.40
77582;DHT22;66726;52.388;9.986;2023-06-26T08:25:24;25.70;83.20
77582;DHT22;66726;52.388;9.986;2023-06-26T08:27:56;25.70;82.40
77582;DHT22;66726;52.388;9.986;2023-06-26T08:30:28;25.90;80.00
77582;DHT22;66726;52.388;9.986;2023-06-26T08:33:01;25.90;80.00
77582;DHT22;66726;52.388;9.986;2023-06-26T08:35:35;25.90;80.30
77582;DHT22;66726;52.388;9.986;2023-06-26T08:38:07;26.00;80.60
77582;DHT22;66726;52.388;9.986;2023-06-26T08:40:39;26.20;79.70
77582;DHT22;66726;52.388;9.986;2023-06-26T08:43:12;26.30;79.00
77582;DHT22;66726;52.388;9.986;2023-06-26T08:45:43;26.40;79.00
77582;DHT22;66726;52.388;9.986;2023-06-26T08:48:20;26.30;79.30
77582;DHT22;66726;52.388;9.986;2023-06-26T08:50:55;26.40;78.70
77582;DHT22;66726;52.388;9.986;2023-06-26T08:53:33;26.50;78.60
77582;DHT22;66726;52.388;9.986;2023-06-26T08:56:14;26.60;77.10
77582;DHT22;66726;52.388;9.986;2023-06-26T08:58:50;26.60;77.30
77582;DHT22;66726;52.388;9.986;2023-06-26T09:01:22;26.70;78.40
77582;DHT22;66726;52.388;9.986;2023-06-26T09:03:55;26.80;80.40
77582;DHT22;66726;52.388;9.986;2023-06-26T09:06:29;26.70;79.40
77582;DHT22;66726;52.388;9.986;2023-06-26T09:09:01;26.90;79.60
77582;DHT22;66726;52.388;9.986;2023-06-26T09:11:35;27.10;78.00
77582;DHT22;66726;52.388;9.986;2023-06-26T09:14:06;27.10;77.00
77582;DHT22;66726;52.388;9.986;2023-06-26T09:16:43;27.10;77.30
77582;DHT22;66726;52.388;9.986;2023-06-26T09:19:15;27.20;77.90
77582;DHT22;66726;52.388;9.986;2023-06-26T09:21:50;27.30;79.00
77582;DHT22;66726;52.388;9.986;2023-06-26T09:24:24;27.40;78.00
77582;DHT22;66726;52.388;9.986;2023-06-26T09:26:56;27.40;78.10
77582;DHT22;66726;52.388;9.986;2023-06-26T09:29:28;27.60;78.10
77582;DHT22;66726;52.388;9.986;2023-06-26T09:32:01;27.60;78.10
77582;DHT22;66726;52.388;9.986;2023-06-26T09:34:34;27.50;77.90
77582;DHT22;66726;52.388;9.986;2023-06-26T09:37:07;27.50;78.50
77582;DHT22;66726;52.388;9.986;2023-06-26T09:39:42;27.60;77.40
77582;DHT22;66726;52.388;9.986;2023-06-26T09:42:15;27.60;79.50
77582;DHT22;66726;52.388;9.986;2023-06-26T09:44:48;27.60;77.80
77582;DHT22;66726;52.388;9.986;2023-06-26T09:47:21;27.60;78.40
77582;DHT22;66726;52.388;9.986;2023-06-26T09:49:55;27.60;77.00
77582;DHT22;66726;52.388;9.986;2023-06-26T09:52:29;27.60;74.60
77582;DHT22;66726;52.388;9.986;2023-06-26T09:55:09;27.60;76.00
77582;DHT22;66726;52.388;9.986;2023-06-26T09:57:42;27.60;76.40
77582;DHT22;66726;52.388;9.986;2023-06-26T10:02:47;27.50;76.70
77582;DHT22;66726;52.388;9.986;2023-06-26T10:05:19;27.40;75.20
77582;DHT22;66726;52.388;9.986;2023-06-26T10:07:53;26.90;76.60
77582;DHT22;66726;52.388;9.986;2023-06-26T10:10:29;27.00;78.10
77582;DHT22;66726;52.388;9.986;2023-06-26T10:13:04;26.90;79.00
77582;DHT22;66726;52.388;9.986;2023-06-26T10:15:46;26.80;79.50
77582;DHT22;66726;52.388;9.986;2023-06-26T10:18:20;26.80;79.90
77582;DHT22;66726;52.388;9.986;2023-06-26T10:20:55;26.70;81.10
77582;DHT22;66726;52.388;9.986;2023-06-26T10:23:32;26.70;80.90
77582;DHT22;66726;52.388;9.986;2023-06-26T10:26:09;26.70;81.00
77582;DHT22;66726;52.388;9.986;2023-06-26T10:28:43;26.60;81.40
77582;DHT22;66726;52.388;9.986;2023-06-26T10:31:21;26.60;81.80
77582;DHT22;66726;52.388;9.986;2023-06-26T10:33:55;26.70;82.40
77582;DHT22;66726;52.388;9.986;2023-06-26T10:36:32;26.70;83.30
77582;DHT22;66726;52.388;9.986;2023-06-26T10:39:08;26.50;83.60
77582;DHT22;66726;52.388;9.986;2023-06-26T10:41:41;26.50;84.20
77582;DHT22;66726;52.388;9.986;2023-06-26T10:44:43;26.30;83.70
77582;DHT22;66726;52.388;9.986;2023-06-26T10:47:32;26.00;85.20
77582;DHT22;66726;52.388;9.986;2023-06-26T10:50:23;26.00;85.20
77582;DHT22;66726;52.388;9.986;2023-06-26T10:53:14;25.80;83.70
77582;DHT22;66726;52.388;9.986;2023-06-26T10:55:59;25.60;83.60
77582;DHT22;66726;52.388;9.986;2023-06-26T10:58:41;25.30;88.80
77582;DHT22;66726;52.388;9.986;2023-06-26T11:01:23;24.70;91.70
77582;DHT22;66726;52.388;9.986;2023-06-26T11:04:04;24.70;92.00
77582;DHT22;66726;52.388;9.986;2023-06-26T11:06:37;24.70;92.70
77582;DHT22;66726;52.388;9.986;2023-06-26T11:09:13;24.60;93.90
77582;DHT22;66726;52.388;9.986;2023-06-26T11:11:59;24.60;94.00
77582;DHT22;66726;52.388;9.986;2023-06-26T11:14:35;24.70;93.70
77582;DHT22;66726;52.388;9.986;2023-06-26T11:17:07;24.60;93.20
77582;DHT22;66726;52.388;9.986;2023-06-26T11:19:45;24.70;93.60
77582;DHT22;66726;52.388;9.986;2023-06-26T11:22:17;24.70;93.70
77582;DHT22;66726;52.388;9.986;2023-06-26T11:24:50;24.90;94.20
77582;DHT22;66726;52.388;9.986;2023-06-26T11:27:37;24.90;94.30
77582;DHT22;66726;52.388;9.986;2023-06-26T11:30:22;25.00;93.50
77582;DHT22;66726;52.388;9.986;2023-06-26T11:33:02;25.10;94.00
77582;DHT22;66726;52.388;9.986;2023-06-26T11:35:35;25.10;94.00
77582;DHT22;66726;52.388;9.986;2023-06-26T11:38:08;25.20;93.90
77582;DHT22;66726;52.388;9.986;2023-06-26T11:40:40;25.20;94.60
77582;DHT22;66726;52.388;9.986;2023-06-26T11:43:13;25.20;93.50
77582;DHT22;66726;52.388;9.986;2023-06-26T11:45:45;25.10;93.10
77582;DHT22;66726;52.388;9.986;2023-06-26T11:48:19;25.10;93.00
77582;DHT22;66726;52.388;9.986;2023-06-26T11:50:52;25.10;92.60
77582;DHT22;66726;52.388;9.986;2023-06-26T11:53:24;25.00;92.50
77582;DHT22;66726;52.388;9.986;2023-06-26T11:55:55;24.90;92.50
77582;DHT22;66726;52.388;9.986;2023-06-26T11:58:29;24.80;92.50
77582;DHT22;66726;52.388;9.986;2023-06-26T12:01:01;24.80;92.80
77582;DHT22;66726;52.388;9.986;2023-06-26T12:03:35;24.80;92.10
77582;DHT22;66726;52.388;9.986;2023-06-26T12:06:08;24.90;93.10
77582;DHT22;66726;52.388;9.986;2023-06-26T12:08:40;25.10;92.70
77582;DHT22;66726;52.388;9.986;2023-06-26T12:11:12;25.00;92.40
77582;DHT22;66726;52.388;9.986;2023-06-26T12:13:48;25.10;92.30
77582;DHT22;66726;52.388;9.986;2023-06-26T12:16:20;25.00;92.10
77582;DHT22;66726;52.388;9.986;2023-06-26T12:18:59;24.90;91.80
77582;DHT22;66726;52.388;9.986;2023-06-26T12:21:44;24.80;92.50
77582;DHT22;66726;52.388;9.986;2023-06-26T12:24:23;24.90;91.70
77582;DHT22;66726;52.388;9.986;2023-06-26T12:26:57;24.80;91.20
77582;DHT22;66726;52.388;9.986;2023-06-26T12:29:35;24.80;90.30
77582;DHT22;66726;52.388;9.986;2023-06-26T12:32:10;24.80;88.30
77582;DHT22;66726;52.388;9.986;2023-06-26T12:34:46;24.80;90.10
77582;DHT22;66726;52.388;9.986;2023-06-26T12:37:19;24.80;90.10
77582;DHT22;66726;52.388;9.986;2023-06-26T12:39:52;24.90;89.30
77582;DHT22;66726;52.388;9.986;2023-06-26T12:42:26;25.00;88.20
77582;DHT22;66726;52.388;9.986;2023-06-26T12:45:13;25.20;88.50
77582;DHT22;66726;52.388;9.986;2023-06-26T12:47:49;25.30;88.00
77582;DHT22;66726;52.388;9.986;2023-06-26T12:50:22;25.30;86.20
77582;DHT22;66726;52.388;9.986;2023-06-26T12:52:54;25.30;86.10
77582;DHT22;66726;52.388;9.986;2023-06-26T12:55:26;25.20;86.30
77582;DHT22;66726;52.388;9.986;2023-06-26T12:58:00;25.20;86.30
77582;DHT22;66726;52.388;9.986;2023-06-26T13:00:33;25.20;87.00
77582;DHT22;66726;52.388;9.986;2023-06-26T13:03:07;25.50;86.80
77582;DHT22;66726;52.388;9.986;2023-06-26T13:05:39;25.60;84.10
77582;DHT22;66726;52.388;9.986;2023-06-26T13:08:11;25.60;85.40
77582;DHT22;66726;52.388;9.986;2023-06-26T13:10:45;25.50;84.30
77582;DHT22;66726;52.388;9.986;2023-06-26T13:13:17;25.50;84.20
77582;DHT22;66726;52.388;9.986;2023-06-26T13:15:52;25.50;82.30
77582;DHT22;66726;52.388;9.986;2023-06-26T13:18:24;25.50;83.80
77582;DHT22;66726;52.388;9.986;2023-06-26T13:20:56;25.60;84.30
77582;DHT22;66726;52.388;9.986;2023-06-26T13:23:27;25.70;83.80
77582;DHT22;66726;52.388;9.986;2023-06-26T13:26:01;25.60;82.40
77582;DHT22;66726;52.388;9.986;2023-06-26T13:28:35;25.50;83.00
77582;DHT22;66726;52.388;9.986;2023-06-26T13:31:08;25.40;80.60
77582;DHT22;66726;52.388;9.986;2023-06-26T13:33:41;25.50;80.20
77582;DHT22;66726;52.388;9.986;2023-06-26T13:36:14;25.40;78.50
77582;DHT22;66726;52.388;9.986;2023-06-26T13:38:46;25.40;79.50
77582;DHT22;66726;52.388;9.986;2023-06-26T13:41:24;25.40;79.70
77582;DHT22;66726;52.388;9.986;2023-06-26T13:43:57;25.40;79.80
77582;DHT22;66726;52.388;9.986;2023-06-26T13:46:40;25.50;78.90
77582;DHT22;66726;52.388;9.986;2023-06-26T13:49:12;25.40;78.70
77582;DHT22;66726;52.388;9.986;2023-06-26T13:51:44;25.40;76.80
77582;DHT22;66726;52.388;9.986;2023-06-26T13:54:16;25.60;76.20
77582;DHT22;66726;52.388;9.986;2023-06-26T13:56:48;25.70;74.50
77582;DHT22;66726;52.388;9.986;2023-06-26T13:59:23;25.80;76.00
77582;DHT22;66726;52.388;9.986;2023-06-26T14:01:57;25.80;72.20
77582;DHT22;66726;52.388;9.986;2023-06-26T14:04:29;25.80;74.70
77582;DHT22;66726;52.388;9.986;2023-06-26T14:07:01;25.70;75.80
77582;DHT22;66726;52.388;9.986;2023-06-26T14:09:35;25.60;78.10
77582;DHT22;66726;52.388;9.986;2023-06-26T14:12:08;25.60;79.00
77582;DHT22;66726;52.388;9.986;2023-06-26T14:14:42;25.50;79.50
77582;DHT22;66726;52.388;9.986;2023-06-26T14:17:15;25.60;80.30
77582;DHT22;66726;52.388;9.986;2023-06-26T14:19:47;25.80;80.00
77582;DHT22;66726;52.388;9.986;2023-06-26T14:22:19;25.70;78.10
77582;DHT22;66726;52.388;9.986;2023-06-26T14:24:51;25.80;78.90
77582;DHT22;66726;52.388;9.986;2023-06-26T14:27:23;25.70;78.20
77582;DHT22;66726;52.388;9.986;2023-06-26T14:29:55;25.90;77.90
77582;DHT22;66726;52.388;9.986;2023-06-26T14:32:28;26.00;77.40
77582;DHT22;66726;52.388;9.986;2023-06-26T14:35:00;25.90;76.70
77582;DHT22;66726;52.388;9.986;2023-06-26T14:37:32;25.90;76.10
77582;DHT22;66726;52.388;9.986;2023-06-26T14:40:06;26.00;76.10
77582;DHT22;66726;52.388;9.986;2023-06-26T14:42:40;26.10;75.90
77582;DHT22;66726;52.388;9.986;2023-06-26T14:45:16;25.90;71.40
77582;DHT22;66726;52.388;9.986;2023-06-26T14:47:50;25.70;73.00
77582;DHT22;66726;52.388;9.986;2023-06-26T14:50:22;25.50;71.50
77582;DHT22;66726;52.388;9.986;2023-06-26T14:52:53;25.40;70.30
77582;DHT22;66726;52.388;9.986;2023-06-26T14:55:25;25.50;70.30
77582;DHT22;66726;52.388;9.986;2023-06-26T14:57:59;25.30;69.70
77582;DHT22;66726;52.388;9.986;2023-06-26T15:00:32;25.30;69.00
77582;DHT22;66726;52.388;9.986;2023-06-26T15:03:06;25.20;68.00
77582;DHT22;66726;52.388;9.986;2023-06-26T15:05:39;25.40;67.20
77582;DHT22;66726;52.388;9.986;2023-06-26T15:08:13;25.30;68.50
77582;DHT22;66726;52.388;9.986;2023-06-26T15:10:45;25.20;71.30
77582;DHT22;66726;52.388;9.986;2023-06-26T15:13:17;25.10;72.60
77582;DHT22;66726;52.388;9.986;2023-06-26T15:15:48;25.10;72.40
77582;DHT22;66726;52.388;9.986;2023-06-26T15:18:22;25.10;72.60
77582;DHT22;66726;52.388;9.986;2023-06-26T15:20:54;25.10;72.50
77582;DHT22;66726;52.388;9.986;2023-06-26T15:23:25;25.10;73.10
77582;DHT22;66726;52.388;9.986;2023-06-26T15:25:57;25.30;74.10
77582;DHT22;66726;52.388;9.986;2023-06-26T15:28:30;25.50;72.20
77582;DHT22;66726;52.388;9.986;2023-06-26T15:31:01;25.40;72.10
77582;DHT22;66726;52.388;9.986;2023-06-26T15:33:35;25.10;71.10
77582;DHT22;66726;52.388;9.986;2023-06-26T15:36:07;25.00;71.40
77582;DHT22;66726;52.388;9.986;2023-06-26T15:38:39;24.90;70.70
77582;DHT22;66726;52.388;9.986;2023-06-26T15:41:11;24.70;71.10
77582;DHT22;66726;52.388;9.986;2023-06-26T15:43:43;25.40;69.70
77582;DHT22;66726;52.388;9.986;2023-06-26T15:46:15;24.90;68.90
77582;DHT22;66726;52.388;9.986;2023-06-26T15:48:48;25.00;66.50
77582;DHT22;66726;52.388;9.986;2023-06-26T15:51:22;25.00;65.70
77582;DHT22;66726;52.388;9.986;2023-06-26T15:53:54;24.70;64.50
77582;DHT22;66726;52.388;9.986;2023-06-26T15:56:26;24.60;64.80
77582;DHT22;66726;52.388;9.986;2023-06-26T15:58:58;24.70;65.50
77582;DHT22;66726;52.388;9.986;2023-06-26T16:01:29;24.60;65.40
77582;DHT22;66726;52.388;9.986;2023-06-26T16:04:03;24.60;66.20
77582;DHT22;66726;52.388;9.986;2023-06-26T16:06:35;24.50;67.20
77582;DHT22;66726;52.388;9.986;2023-06-26T16:09:07;24.50;68.30
77582;DHT22;66726;52.388;9.986;2023-06-26T16:11:39;24.50;69.10